CheckWX is a tool to help pilots better visualize weather data.  It is not intended as a substitute for an official pre-flight weather briefing.

14:46:37 UTC

KFYE METAR
Fayette County Airport
Somerville, Tennessee, USA
Current

12 mins ago

KFYE 261435Z AUTO 33009KT 10SM CLR 17/10 A3003 RMK A01
Observed
Apr-26 @ 14:35 UTC
Wind
  • 330° at 9 KTS
Visibility
10 SM
Flight Rules
VFR
Cloud Levels
  • Clear skies
Temperature
17°C / 63°F
Dewpoint
10°C / 50°F
Humidity
64%
Altimeter
30.03" Hg
Pressure
1016.92 hPa
Previous

32 mins ago

KFYE 261415Z AUTO 31006KT 10SM CLR 16/10 A3003 RMK A01
Observed
Apr-26 @ 14:15 UTC
Wind
  • 310° at 6 KTS
Visibility
10 SM
Flight Rules
VFR
Cloud Levels
  • Clear skies
Temperature
16°C / 61°F
Dewpoint
10°C / 50°F
Humidity
68%
Altimeter
30.03" Hg
Pressure
1016.92 hPa
Previous

52 mins ago

KFYE 261355Z AUTO 30008KT 260V320 10SM CLR 16/10 A3003 RMK A01
Observed
Apr-26 @ 13:55 UTC
Wind
  • 300° at 8 KTS
Visibility
10 SM
Flight Rules
VFR
Cloud Levels
  • Clear skies
Temperature
16°C / 61°F
Dewpoint
10°C / 50°F
Humidity
68%
Altimeter
30.03" Hg
Pressure
1016.92 hPa